createdAt,value
2022-11-19T00:01:32.699Z,2.00
2022-11-19T00:04:00.186Z,2.00
2022-11-19T00:06:28.046Z,2.00
2022-11-19T00:08:55.733Z,2.00
2022-11-19T00:11:47.268Z,1.90
2022-11-19T00:14:16.204Z,1.90
2022-11-19T00:16:44.433Z,1.90
2022-11-19T00:19:12.651Z,1.60
2022-11-19T00:21:40.308Z,1.70
2022-11-19T00:24:08.785Z,1.80
2022-11-19T00:26:36.195Z,1.80
2022-11-19T00:29:03.771Z,1.60
2022-11-19T00:31:31.911Z,1.60
2022-11-19T00:34:02.576Z,1.60
2022-11-19T00:36:30.209Z,1.50
2022-11-19T00:38:57.543Z,1.40
2022-11-19T00:41:24.973Z,1.40
2022-11-19T00:43:52.312Z,1.30
2022-11-19T00:46:21.432Z,1.40
2022-11-19T00:48:50.354Z,1.50
2022-11-19T00:51:19.496Z,1.50
2022-11-19T00:53:47.025Z,1.50
2022-11-19T00:56:17.659Z,1.40
2022-11-19T00:58:46.408Z,1.40
2022-11-19T01:01:15.288Z,1.40
2022-11-19T01:03:46.072Z,1.50
2022-11-19T01:06:19.023Z,1.50
2022-11-19T01:08:51.739Z,1.50
2022-11-19T01:11:28.123Z,1.50
2022-11-19T01:13:56.195Z,1.40
2022-11-19T01:16:27.125Z,1.50
2022-11-19T01:18:54.943Z,1.50
2022-11-19T01:21:25.498Z,1.50
2022-11-19T01:23:53.428Z,1.30
2022-11-19T01:26:21.475Z,1.50
2022-11-19T01:28:49.175Z,1.50
2022-11-19T01:31:22.756Z,1.40
2022-11-19T01:33:50.574Z,1.40
2022-11-19T01:36:26.916Z,1.50
2022-11-19T01:38:54.758Z,1.40
2022-11-19T01:41:30.506Z,1.40
2022-11-19T01:44:04.247Z,1.40
2022-11-19T01:46:35.156Z,1.40
2022-11-19T01:49:02.566Z,1.40
2022-11-19T01:51:40.646Z,1.30
2022-11-19T01:54:14.469Z,1.10
2022-11-19T01:56:42.054Z,1.10
2022-11-19T01:59:17.414Z,1.20
2022-11-19T02:01:45.731Z,1.10
2022-11-19T02:04:16.400Z,1.10
2022-11-19T02:06:45.427Z,1.10
2022-11-19T02:09:12.793Z,1.20
2022-11-19T02:12:11.741Z,1.10
2022-11-19T02:14:41.863Z,1.20
2022-11-19T02:17:18.044Z,1.10
2022-11-19T02:20:02.544Z,1.20
2022-11-19T02:22:52.200Z,1.00
2022-11-19T02:25:44.415Z,1.10
2022-11-19T02:28:31.804Z,0.90
2022-11-19T02:31:16.492Z,0.90
2022-11-19T02:33:55.733Z,0.80
2022-11-19T02:36:36.517Z,1.00
2022-11-19T02:39:10.402Z,1.00
2022-11-19T02:41:44.713Z,1.00
2022-11-19T02:44:48.383Z,1.00
2022-11-19T02:47:26.783Z,0.90
2022-11-19T02:49:59.371Z,0.80
2022-11-19T02:52:27.618Z,0.70
2022-11-19T02:54:55.096Z,0.80
2022-11-19T02:57:22.456Z,0.80
2022-11-19T03:00:28.695Z,0.70
2022-11-19T03:03:32.271Z,0.80
2022-11-19T03:06:05.195Z,0.80
2022-11-19T03:08:32.822Z,0.80
2022-11-19T03:11:12.764Z,0.90
2022-11-19T03:14:27.897Z,1.00
2022-11-19T03:17:27.313Z,1.00
2022-11-19T03:20:14.434Z,0.80
2022-11-19T03:22:51.324Z,0.80
2022-11-19T03:25:47.269Z,0.80
2022-11-19T03:28:19.827Z,0.90
2022-11-19T03:30:49.416Z,0.90
2022-11-19T03:33:25.839Z,0.90
2022-11-19T03:36:18.650Z,1.00
2022-11-19T03:38:52.466Z,0.80
2022-11-19T03:41:21.940Z,0.90
2022-11-19T03:44:02.081Z,0.80
2022-11-19T03:46:33.431Z,0.70
2022-11-19T03:49:03.880Z,0.80
2022-11-19T03:51:43.997Z,0.80
2022-11-19T03:54:11.710Z,0.80
2022-11-19T03:56:41.558Z,0.90
2022-11-19T03:59:11.240Z,0.80
2022-11-19T04:01:39.764Z,0.80
2022-11-19T04:04:25.904Z,0.80
2022-11-19T04:06:53.878Z,0.70
2022-11-19T04:09:21.553Z,0.80
2022-11-19T04:14:15.376Z,0.60
2022-11-19T04:16:42.724Z,0.60
2022-11-19T04:19:10.145Z,0.50
2022-11-19T04:21:37.708Z,0.60
2022-11-19T04:24:05.472Z,0.70
2022-11-19T04:26:32.816Z,0.60
2022-11-19T04:29:00.359Z,0.60
2022-11-19T04:31:27.732Z,0.70
2022-11-19T04:33:55.075Z,0.70
2022-11-19T04:36:22.693Z,0.70
2022-11-19T04:38:50.129Z,0.70
2022-11-19T04:41:17.553Z,0.80
2022-11-19T04:43:44.868Z,0.80
2022-11-19T04:46:12.215Z,0.80
2022-11-19T04:48:39.570Z,0.70
2022-11-19T04:51:07.094Z,0.80
2022-11-19T04:53:34.657Z,0.70
2022-11-19T04:56:02.293Z,0.80
2022-11-19T04:58:29.672Z,0.70
2022-11-19T05:00:57.056Z,0.70
2022-11-19T05:03:24.517Z,0.70
2022-11-19T05:05:51.837Z,0.70
2022-11-19T05:08:19.794Z,0.70
2022-11-19T05:10:47.168Z,0.70
2022-11-19T05:13:14.545Z,0.60
2022-11-19T05:15:41.911Z,0.70
2022-11-19T05:18:09.515Z,0.60
2022-11-19T05:20:36.835Z,0.70
2022-11-19T05:23:04.743Z,0.70
2022-11-19T05:25:32.150Z,0.70
2022-11-19T05:27:59.497Z,0.80
2022-11-19T05:30:26.878Z,0.80
2022-11-19T05:32:54.263Z,0.70
2022-11-19T05:35:21.640Z,0.60
2022-11-19T05:37:50.193Z,0.60
2022-11-19T05:40:18.534Z,0.60
2022-11-19T05:42:45.904Z,0.70
2022-11-19T05:45:16.024Z,0.60
2022-11-19T05:47:47.396Z,0.70
2022-11-19T05:50:16.516Z,0.70
2022-11-19T05:52:43.914Z,0.70
2022-11-19T05:55:11.283Z,0.60
2022-11-19T05:57:38.586Z,0.60
2022-11-19T06:00:06.552Z,0.50
2022-11-19T06:02:39.854Z,0.50
2022-11-19T06:05:07.663Z,0.50
2022-11-19T06:07:35.088Z,0.50
2022-11-19T06:10:02.639Z,0.60
2022-11-19T06:12:30.035Z,0.60
2022-11-19T06:14:57.411Z,0.60
2022-11-19T06:17:24.727Z,0.60
2022-11-19T06:19:52.096Z,0.60
2022-11-19T06:22:19.398Z,0.60
2022-11-19T06:24:46.785Z,0.60
2022-11-19T06:27:14.183Z,0.60
2022-11-19T06:29:42.600Z,0.60
2022-11-19T06:32:10.000Z,0.60
2022-11-19T06:34:37.360Z,0.50
2022-11-19T06:37:04.794Z,0.50
2022-11-19T06:39:32.172Z,0.50
2022-11-19T06:42:19.480Z,0.50
2022-11-19T06:44:46.795Z,0.60
2022-11-19T06:47:14.172Z,0.70
2022-11-19T06:49:41.625Z,0.70
2022-11-19T06:52:08.992Z,0.70
2022-11-19T06:54:40.223Z,0.80
2022-11-19T06:57:10.357Z,0.80
2022-11-19T06:59:39.159Z,0.80
2022-11-19T07:02:07.379Z,0.90
2022-11-19T07:04:34.779Z,0.70
2022-11-19T07:07:02.269Z,0.80
2022-11-19T07:09:29.728Z,0.90
2022-11-19T07:11:57.131Z,0.70
2022-11-19T07:14:24.477Z,0.70
2022-11-19T07:16:51.896Z,0.80
2022-11-19T07:19:20.026Z,0.80
2022-11-19T07:21:47.776Z,0.80
2022-11-19T07:24:17.740Z,0.90
2022-11-19T07:26:45.400Z,1.00
2022-11-19T07:29:14.673Z,1.00
2022-11-19T07:31:42.414Z,0.90
2022-11-19T07:34:10.992Z,1.10
2022-11-19T07:36:38.531Z,0.90
2022-11-19T07:39:06.373Z,0.90
2022-11-19T07:41:52.945Z,1.10
2022-11-19T07:44:20.387Z,1.10
2022-11-19T07:46:47.736Z,1.10
2022-11-19T07:49:15.128Z,1.10
2022-11-19T07:51:43.169Z,1.10
2022-11-19T07:54:14.478Z,1.10
2022-11-19T07:56:42.369Z,1.00
2022-11-19T07:59:10.269Z,1.10
2022-11-19T08:01:38.508Z,1.20
2022-11-19T08:04:05.930Z,1.00
2022-11-19T08:06:34.769Z,1.10
2022-11-19T08:09:04.010Z,1.10
2022-11-19T08:11:31.910Z,1.20
2022-11-19T08:14:01.493Z,1.20
2022-11-19T08:16:48.205Z,1.20
2022-11-19T08:19:17.296Z,1.20
2022-11-19T08:21:47.081Z,1.10
2022-11-19T08:24:16.742Z,1.10
2022-11-19T08:26:45.077Z,1.00
2022-11-19T08:29:16.638Z,1.00
2022-11-19T08:31:46.018Z,1.00
2022-11-19T08:34:14.400Z,1.00
2022-11-19T08:36:42.307Z,1.10
2022-11-19T08:39:10.138Z,1.20
2022-11-19T08:41:56.267Z,1.20
2022-11-19T08:44:23.813Z,1.20
2022-11-19T08:46:51.304Z,1.00
2022-11-19T08:49:18.977Z,1.00
2022-11-19T08:51:46.418Z,1.10
2022-11-19T08:54:14.013Z,1.10
2022-11-19T08:56:41.366Z,1.00
2022-11-19T08:59:09.386Z,0.80
2022-11-19T09:01:36.722Z,0.70
2022-11-19T09:04:04.249Z,0.80
2022-11-19T09:06:34.786Z,1.00
2022-11-19T09:09:03.749Z,1.10
2022-11-19T09:11:31.438Z,1.20
2022-11-19T09:13:58.915Z,1.30
2022-11-19T09:16:26.401Z,1.40
2022-11-19T09:18:53.802Z,1.40
2022-11-19T09:21:21.138Z,1.50
2022-11-19T09:23:48.579Z,1.40
2022-11-19T09:29:12.445Z,1.40
2022-11-19T09:31:39.940Z,1.40
2022-11-19T09:34:07.951Z,1.40
2022-11-19T09:36:35.325Z,1.50
2022-11-19T09:39:03.731Z,1.60
2022-11-19T09:41:34.489Z,1.50
2022-11-19T09:44:26.400Z,1.60
2022-11-19T09:47:00.561Z,1.60
2022-11-19T09:49:30.396Z,1.60
2022-11-19T09:52:09.236Z,1.70
2022-11-19T09:54:43.982Z,1.70
2022-11-19T09:57:18.248Z,1.70
2022-11-19T09:59:46.282Z,1.60
2022-11-19T10:02:19.356Z,1.70
2022-11-19T10:04:48.756Z,1.60
2022-11-19T10:07:51.669Z,1.50
2022-11-19T10:10:51.384Z,1.60
2022-11-19T10:13:50.599Z,1.70
2022-11-19T10:16:51.084Z,1.50
2022-11-19T10:19:30.463Z,1.60
2022-11-19T10:22:00.603Z,1.70
2022-11-19T10:24:30.996Z,1.60
2022-11-19T10:27:07.257Z,1.50
2022-11-19T10:29:39.087Z,1.70
2022-11-19T10:32:24.846Z,1.80
2022-11-19T10:34:58.588Z,1.80
2022-11-19T10:37:34.491Z,1.80
2022-11-19T10:40:12.151Z,1.70
2022-11-19T10:42:44.642Z,1.60
2022-11-19T10:45:25.169Z,1.70
2022-11-19T10:48:09.569Z,1.70
2022-11-19T10:50:37.169Z,1.70
2022-11-19T10:53:26.626Z,1.70
2022-11-19T10:56:04.779Z,1.70
2022-11-19T10:58:40.501Z,1.70
2022-11-19T11:01:27.105Z,1.70
2022-11-19T11:04:16.931Z,1.80
2022-11-19T11:06:56.335Z,1.80
2022-11-19T11:09:29.910Z,1.90
2022-11-19T11:12:43.626Z,2.00
2022-11-19T11:15:16.080Z,1.90
2022-11-19T11:17:46.650Z,1.90
2022-11-19T11:20:20.136Z,1.80
2022-11-19T11:22:51.319Z,1.80
2022-11-19T11:25:27.024Z,1.90
2022-11-19T11:28:12.557Z,1.90
2022-11-19T11:30:59.854Z,2.00
2022-11-19T11:33:33.117Z,1.80
2022-11-19T11:36:22.932Z,1.80
2022-11-19T11:38:56.211Z,1.90
2022-11-19T11:44:24.781Z,2.00
2022-11-19T11:46:56.923Z,1.90
2022-11-19T11:49:37.509Z,1.90
2022-11-19T11:52:26.740Z,1.70
2022-11-19T11:54:57.656Z,1.80
2022-11-19T11:57:33.143Z,1.80
2022-11-19T12:00:02.368Z,1.70
2022-11-19T12:02:35.085Z,1.80
2022-11-19T12:05:14.854Z,1.90
2022-11-19T12:08:04.952Z,2.00
2022-11-19T12:10:39.506Z,1.90
2022-11-19T12:13:25.498Z,1.80
2022-11-19T12:16:36.811Z,1.70
2022-11-19T12:19:42.512Z,1.70
2022-11-19T12:22:35.641Z,1.80
2022-11-19T12:25:36.598Z,1.90
2022-11-19T12:28:43.616Z,1.90
2022-11-19T12:31:32.801Z,1.90
2022-11-19T12:34:03.323Z,1.80
2022-11-19T12:36:38.579Z,1.90
2022-11-19T12:39:24.255Z,1.90
2022-11-19T12:41:51.563Z,2.00
2022-11-19T12:45:03.331Z,2.00
2022-11-19T12:47:45.185Z,1.80
2022-11-19T12:50:24.740Z,2.10
2022-11-19T12:53:24.371Z,2.10
2022-11-19T12:56:18.675Z,2.20
2022-11-19T12:59:02.276Z,2.20
2022-11-19T13:01:35.756Z,2.10
2022-11-19T13:04:03.138Z,2.20
2022-11-19T13:06:44.919Z,2.20
2022-11-19T13:09:32.968Z,2.30
2022-11-19T13:12:05.924Z,2.20
2022-11-19T13:14:41.116Z,2.20
2022-11-19T13:17:23.513Z,2.10
2022-11-19T13:19:56.768Z,1.90
2022-11-19T13:22:32.804Z,1.90
2022-11-19T13:25:05.529Z,1.90
2022-11-19T13:27:32.968Z,2.00
2022-11-19T13:30:00.254Z,1.90
2022-11-19T13:32:43.168Z,1.90
2022-11-19T13:35:32.776Z,2.00
2022-11-19T13:38:03.199Z,2.00
2022-11-19T13:40:56.831Z,1.90
2022-11-19T13:43:42.746Z,1.90
2022-11-19T13:46:18.588Z,1.90
2022-11-19T13:49:00.356Z,1.90
2022-11-19T13:51:42.577Z,1.90
2022-11-19T13:54:26.736Z,1.90
2022-11-19T13:56:57.365Z,1.90
2022-11-19T13:59:39.084Z,1.90
2022-11-19T14:02:31.696Z,1.90
2022-11-19T14:05:11.183Z,1.90
2022-11-19T14:07:49.219Z,1.90
2022-11-19T14:10:30.883Z,1.90
2022-11-19T14:13:19.418Z,1.70
2022-11-19T14:16:25.629Z,1.60
2022-11-19T14:19:18.903Z,1.60
2022-11-19T14:22:07.537Z,1.50
2022-11-19T14:24:53.634Z,1.30
2022-11-19T14:27:27.816Z,1.40
2022-11-19T14:29:58.216Z,1.50
2022-11-19T14:32:46.366Z,1.40
2022-11-19T14:35:26.610Z,1.30
2022-11-19T14:38:28.874Z,1.20
2022-11-19T14:41:08.339Z,1.00
2022-11-19T14:44:08.452Z,1.10
2022-11-19T14:46:44.398Z,1.10
2022-11-19T14:49:34.558Z,1.00
2022-11-19T14:52:03.224Z,1.00
2022-11-19T14:54:42.376Z,0.90
2022-11-19T14:57:38.298Z,0.90
2022-11-19T15:00:14.484Z,0.90
2022-11-19T15:02:51.917Z,0.90
2022-11-19T15:05:23.505Z,1.00
2022-11-19T15:08:12.453Z,1.00
2022-11-19T15:10:46.385Z,1.00
2022-11-19T15:13:18.674Z,1.10
2022-11-19T15:15:49.307Z,1.10
2022-11-19T15:18:28.635Z,1.20
2022-11-19T15:21:22.945Z,1.20
2022-11-19T15:24:12.490Z,1.20
2022-11-19T15:26:48.878Z,1.10
2022-11-19T15:29:44.863Z,1.00
2022-11-19T15:32:43.200Z,1.00
2022-11-19T15:35:45.672Z,0.90
2022-11-19T15:38:18.484Z,0.90
2022-11-19T15:40:49.914Z,1.10
2022-11-19T15:43:42.340Z,1.10
2022-11-19T15:46:20.271Z,1.20
2022-11-19T15:49:16.472Z,1.00
2022-11-19T15:51:58.220Z,1.10
2022-11-19T15:54:34.621Z,1.00
2022-11-19T15:57:17.696Z,1.10
2022-11-19T15:59:59.778Z,1.10
2022-11-19T16:02:27.135Z,1.10
2022-11-19T16:04:55.531Z,1.10
2022-11-19T16:07:25.287Z,1.00
2022-11-19T16:09:53.181Z,1.00
2022-11-19T16:12:41.641Z,1.00
2022-11-19T16:15:37.872Z,1.10
2022-11-19T16:18:16.218Z,1.00
2022-11-19T16:20:50.282Z,1.10
2022-11-19T16:23:27.050Z,0.90
2022-11-19T16:25:54.784Z,0.90
2022-11-19T16:28:32.672Z,0.90
2022-11-19T16:31:03.142Z,0.90
2022-11-19T16:33:32.701Z,0.90
2022-11-19T16:36:20.266Z,1.00
2022-11-19T16:38:49.905Z,1.00
2022-11-19T16:41:42.104Z,1.00
2022-11-19T16:44:17.019Z,1.00
2022-11-19T16:46:45.438Z,1.10
2022-11-19T16:49:48.200Z,1.20
2022-11-19T16:52:34.792Z,1.10
2022-11-19T16:55:07.088Z,1.10
2022-11-19T16:57:34.797Z,1.20
2022-11-19T17:00:13.404Z,1.10
2022-11-19T17:02:41.717Z,1.10
2022-11-19T17:05:13.953Z,1.00
2022-11-19T17:07:46.559Z,1.20
2022-11-19T17:10:31.320Z,1.00
2022-11-19T17:13:18.761Z,1.10
2022-11-19T17:15:50.119Z,1.00
2022-11-19T17:18:35.500Z,1.00
2022-11-19T17:21:06.787Z,1.00
2022-11-19T17:23:46.054Z,1.10
2022-11-19T17:26:18.921Z,1.10
2022-11-19T17:28:50.136Z,1.20
2022-11-19T17:31:24.121Z,1.30
2022-11-19T17:34:11.978Z,1.30
2022-11-19T17:36:39.951Z,1.20
2022-11-19T17:39:11.830Z,1.30
2022-11-19T17:41:59.888Z,1.40
2022-11-19T17:44:35.725Z,1.30
2022-11-19T17:47:24.179Z,1.20
2022-11-19T17:49:53.539Z,1.30
2022-11-19T17:52:24.528Z,1.30
2022-11-19T17:54:55.335Z,1.20
2022-11-19T17:57:23.173Z,1.30
2022-11-19T17:59:51.060Z,1.30
2022-11-19T18:02:20.601Z,1.30
2022-11-19T18:04:49.635Z,1.30
2022-11-19T18:07:17.341Z,1.30
2022-11-19T18:09:45.008Z,1.30
2022-11-19T18:12:18.198Z,1.30
2022-11-19T18:14:50.075Z,1.40
2022-11-19T18:17:18.016Z,1.30
2022-11-19T18:19:46.216Z,1.30
2022-11-19T18:22:18.694Z,1.30
2022-11-19T18:24:50.819Z,1.30
2022-11-19T18:27:20.161Z,1.50
2022-11-19T18:29:47.886Z,1.40
2022-11-19T18:32:17.320Z,1.30
2022-11-19T18:34:46.718Z,1.40
2022-11-19T18:37:14.958Z,1.40
2022-11-19T18:39:43.065Z,1.30
2022-11-19T18:42:13.301Z,1.40
2022-11-19T18:44:43.894Z,1.40
2022-11-19T18:47:14.620Z,1.40
2022-11-19T18:49:43.486Z,1.30
2022-11-19T18:52:17.798Z,1.30
2022-11-19T18:54:46.237Z,1.50
2022-11-19T18:57:14.815Z,1.20
2022-11-19T18:59:42.692Z,1.40
2022-11-19T19:02:10.987Z,1.40
2022-11-19T19:04:39.400Z,1.30
2022-11-19T19:07:07.572Z,1.40
2022-11-19T19:09:37.741Z,1.50
2022-11-19T19:12:17.980Z,1.40
2022-11-19T19:14:48.140Z,1.30
2022-11-19T19:17:17.431Z,1.40
2022-11-19T19:19:46.448Z,1.40
2022-11-19T19:22:15.161Z,1.20
2022-11-19T19:24:43.507Z,1.30
2022-11-19T19:27:13.396Z,1.30
2022-11-19T19:29:42.814Z,1.40
2022-11-19T19:32:12.476Z,1.40
2022-11-19T19:34:41.552Z,1.40
2022-11-19T19:37:09.635Z,1.40
2022-11-19T19:39:37.659Z,1.50
2022-11-19T19:42:09.115Z,1.50
2022-11-19T19:44:37.809Z,1.50
2022-11-19T19:47:07.144Z,1.40
2022-11-19T19:49:38.827Z,1.40
2022-11-19T19:52:08.813Z,1.50
2022-11-19T19:54:41.638Z,1.50
2022-11-19T19:57:09.624Z,1.40
2022-11-19T19:59:37.733Z,1.30
2022-11-19T20:02:07.571Z,1.30
2022-11-19T20:04:37.346Z,1.40
2022-11-19T20:07:07.398Z,1.30
2022-11-19T20:09:35.709Z,1.30
2022-11-19T20:12:06.067Z,1.20
2022-11-19T20:14:37.330Z,1.30
2022-11-19T20:17:06.825Z,1.40
2022-11-19T20:19:37.749Z,1.40
2022-11-19T20:22:12.708Z,1.40
2022-11-19T20:24:42.274Z,1.40
2022-11-19T20:27:12.068Z,1.40
2022-11-19T20:29:43.163Z,1.40
2022-11-19T20:32:22.299Z,1.40
2022-11-19T20:34:50.031Z,1.50
2022-11-19T20:37:18.385Z,1.40
2022-11-19T20:39:46.548Z,1.40
2022-11-19T20:42:32.945Z,1.40
2022-11-19T20:45:01.014Z,1.50
2022-11-19T20:47:28.699Z,1.60
2022-11-19T20:49:56.869Z,1.50
2022-11-19T20:52:25.255Z,1.50
2022-11-19T20:54:53.729Z,1.50
2022-11-19T20:57:21.992Z,1.50
2022-11-19T20:59:49.571Z,1.40
2022-11-19T21:02:17.424Z,1.40
2022-11-19T21:04:45.805Z,1.40
2022-11-19T21:07:13.852Z,1.40
2022-11-19T21:09:42.777Z,1.50
2022-11-19T21:12:12.704Z,1.40
2022-11-19T21:14:40.719Z,1.40
2022-11-19T21:17:12.406Z,1.50
2022-11-19T21:19:41.499Z,1.40
2022-11-19T21:22:13.105Z,1.40
2022-11-19T21:24:42.070Z,1.40
2022-11-19T21:27:11.832Z,1.50
2022-11-19T21:29:39.791Z,1.50
2022-11-19T21:32:10.717Z,1.60
2022-11-19T21:34:43.069Z,1.50
2022-11-19T21:37:11.420Z,1.50
2022-11-19T21:39:41.217Z,1.50
2022-11-19T21:42:11.675Z,1.40
2022-11-19T21:44:42.626Z,1.40
2022-11-19T21:47:11.799Z,1.50
2022-11-19T21:49:41.841Z,1.50
2022-11-19T21:52:11.384Z,1.40
2022-11-19T21:54:41.691Z,1.40
2022-11-19T21:57:09.350Z,1.50
2022-11-19T21:59:37.093Z,1.50
2022-11-19T22:02:04.685Z,1.40
2022-11-19T22:04:32.188Z,1.40
2022-11-19T22:06:59.582Z,1.50
2022-11-19T22:09:26.956Z,1.40
2022-11-19T22:11:54.311Z,1.50
2022-11-19T22:14:21.862Z,1.50
2022-11-19T22:16:51.643Z,1.50
2022-11-19T22:19:20.388Z,1.50
2022-11-19T22:21:47.925Z,1.50
2022-11-19T22:24:15.299Z,1.50
2022-11-19T22:26:44.308Z,1.60
2022-11-19T22:29:12.207Z,1.60
2022-11-19T22:31:39.515Z,1.60
2022-11-19T22:34:06.973Z,1.60
2022-11-19T22:36:34.335Z,1.60
2022-11-19T22:39:01.799Z,1.50
2022-11-19T22:41:29.200Z,1.60
2022-11-19T22:43:57.572Z,1.60
2022-11-19T22:46:25.055Z,1.60
2022-11-19T22:48:52.537Z,1.60
2022-11-19T22:51:22.872Z,1.70
2022-11-19T22:53:52.335Z,1.70
2022-11-19T22:56:24.226Z,1.70
2022-11-19T22:58:55.531Z,1.60
2022-11-19T23:01:31.666Z,1.70
2022-11-19T23:04:01.914Z,1.70
2022-11-19T23:06:29.475Z,1.70
2022-11-19T23:08:56.882Z,1.60
2022-11-19T23:11:45.627Z,1.60
2022-11-19T23:14:15.951Z,1.60
2022-11-19T23:16:45.887Z,1.60
2022-11-19T23:19:16.120Z,1.70
2022-11-19T23:21:43.751Z,1.60
2022-11-19T23:24:14.935Z,1.70
2022-11-19T23:26:42.428Z,1.70
2022-11-19T23:29:11.308Z,1.70
2022-11-19T23:31:40.016Z,1.70
2022-11-19T23:34:10.365Z,1.50
2022-11-19T23:36:40.194Z,1.60
2022-11-19T23:39:13.503Z,1.60
2022-11-19T23:41:40.872Z,1.80
2022-11-19T23:44:08.415Z,1.70
2022-11-19T23:46:36.167Z,1.60
2022-11-19T23:49:05.564Z,1.50
2022-11-19T23:51:36.361Z,1.80
2022-11-19T23:54:05.268Z,1.70
2022-11-19T23:56:36.060Z,1.80
2022-11-19T23:59:06.131Z,1.60
